ADDS TAF Data INFO
IDs: Format: Raw Decoded Include METARs

Data at: 0350 UTC 17 Jul 2018

KTEX 170335Z AUTO 33003KT 10SM BKN090 BKN120 18/08 A3051 RMK AO2

KTEX 162328Z 1700/1724 34004KT P6SM SCT090 BKN200
  FM170300 15004KT P6SM SCT045 BKN110
  FM171800 27006KT P6SM FEW045 SCT200